createdAt,value
2019-02-16T00:02:26.597Z,101029.48
2019-02-16T00:04:59.111Z,101022.14
2019-02-16T00:07:32.426Z,101010.83
2019-02-16T00:10:06.537Z,101017.09
2019-02-16T00:12:40.990Z,101021.05
2019-02-16T00:15:16.671Z,101021.15
2019-02-16T00:17:49.877Z,101017.48
2019-02-16T00:20:23.860Z,101027.98
2019-02-16T00:22:58.098Z,101015.67
2019-02-16T00:25:32.252Z,101022.53
2019-02-16T00:28:06.682Z,101011.95
2019-02-16T00:30:39.537Z,101020.41
2019-02-16T00:33:14.500Z,101018.03
2019-02-16T00:35:47.131Z,101016.89
2019-02-16T00:38:19.645Z,101008.80
2019-02-16T00:40:54.799Z,101004.95
2019-02-16T00:43:27.249Z,101002.60
2019-02-16T00:46:00.303Z,101004.38
2019-02-16T00:48:33.175Z,101004.06
2019-02-16T00:51:13.257Z,101001.76
2019-02-16T00:53:49.470Z,100995.75
2019-02-16T00:56:23.315Z,100997.72
2019-02-16T00:58:56.076Z,100998.44
2019-02-16T01:01:28.660Z,100994.60
2019-02-16T01:04:05.358Z,100992.43
2019-02-16T01:06:38.603Z,100988.55
2019-02-16T01:09:12.229Z,100991.84
2019-02-16T01:11:47.343Z,100994.92
2019-02-16T01:14:19.859Z,100994.16
2019-02-16T01:16:52.472Z,100988.91
2019-02-16T01:19:26.347Z,100988.84
2019-02-16T01:21:58.859Z,100980.53
2019-02-16T01:24:32.671Z,100980.89
2019-02-16T01:27:08.247Z,100978.66
2019-02-16T01:29:40.695Z,100968.99
2019-02-16T01:32:13.299Z,100971.31
2019-02-16T01:34:46.653Z,100966.03
2019-02-16T01:37:19.462Z,100970.02
2019-02-16T01:39:52.060Z,100964.84
2019-02-16T01:42:29.189Z,100966.86
2019-02-16T01:45:05.353Z,100964.19
2019-02-16T01:47:38.632Z,100960.23
2019-02-16T01:50:11.614Z,100956.64
2019-02-16T01:52:45.110Z,100956.99
2019-02-16T01:55:18.718Z,100955.63
2019-02-16T01:57:53.471Z,100952.98
2019-02-16T02:00:25.984Z,100953.72
2019-02-16T02:03:00.061Z,100947.23
2019-02-16T02:05:34.038Z,100951.80
2019-02-16T02:08:08.044Z,100953.95
2019-02-16T02:10:40.680Z,100952.17
2019-02-16T02:13:13.599Z,100951.02
2019-02-16T02:15:47.276Z,100955.75
2019-02-16T02:18:19.969Z,100952.26
2019-02-16T02:20:52.948Z,100954.66
2019-02-16T02:23:26.072Z,100950.16
2019-02-16T02:25:58.748Z,100944.61
2019-02-16T02:28:33.804Z,100938.43
2019-02-16T02:31:08.216Z,100944.34
2019-02-16T02:33:40.751Z,100940.15
2019-02-16T02:36:14.510Z,100949.06
2019-02-16T02:38:47.175Z,100943.39
2019-02-16T02:41:21.337Z,100947.53
2019-02-16T02:43:54.327Z,100944.02
2019-02-16T02:46:26.838Z,100946.73
2019-02-16T02:48:59.440Z,100935.89
2019-02-16T02:51:32.241Z,100945.70
2019-02-16T02:54:04.878Z,100942.94
2019-02-16T02:56:37.442Z,100944.31
2019-02-16T02:59:10.414Z,100944.91
2019-02-16T03:01:43.010Z,100943.48
2019-02-16T03:04:15.600Z,100940.31
2019-02-16T03:06:51.384Z,100939.48
2019-02-16T03:09:23.968Z,100940.36
2019-02-16T03:11:57.610Z,100939.98
2019-02-16T03:14:31.650Z,100944.68
2019-02-16T03:17:04.194Z,100941.14
2019-02-16T03:19:36.719Z,100944.89
2019-02-16T03:22:10.259Z,100939.47
2019-02-16T03:24:43.883Z,100934.50
2019-02-16T03:28:15.845Z,100936.02
2019-02-16T03:31:25.215Z,100930.50
2019-02-16T03:34:09.340Z,100932.45
2019-02-16T03:37:07.265Z,100918.28
2019-02-16T03:39:45.435Z,100916.33
2019-02-16T03:42:18.943Z,100920.11
2019-02-16T03:44:51.489Z,100918.89
2019-02-16T03:47:24.447Z,100919.23
2019-02-16T03:49:57.073Z,100917.55
2019-02-16T03:52:29.809Z,100915.04
2019-02-16T03:55:02.677Z,100916.03
2019-02-16T03:57:35.174Z,100917.05
2019-02-16T04:00:08.636Z,100912.28
2019-02-16T04:02:41.797Z,100920.07
2019-02-16T04:05:14.618Z,100920.51
2019-02-16T04:07:47.142Z,100916.40
2019-02-16T04:10:20.995Z,100916.23
2019-02-16T04:12:53.475Z,100915.84
2019-02-16T04:15:30.514Z,100914.14
2019-02-16T04:18:04.079Z,100915.20
2019-02-16T04:20:37.298Z,100919.78
2019-02-16T04:23:10.307Z,100918.86
2019-02-16T04:25:42.794Z,100915.19
2019-02-16T04:28:15.337Z,100914.14
2019-02-16T04:30:48.264Z,100912.50
2019-02-16T04:33:20.923Z,100908.20
2019-02-16T04:35:53.780Z,100901.69
2019-02-16T04:38:28.155Z,100895.92
2019-02-16T04:41:00.749Z,100890.68
2019-02-16T04:43:33.274Z,100890.52
2019-02-16T04:46:06.045Z,100892.69
2019-02-16T04:48:38.595Z,100897.28
2019-02-16T04:51:11.552Z,100896.72
2019-02-16T04:53:44.498Z,100898.16
2019-02-16T04:56:16.939Z,100902.83
2019-02-16T04:58:49.611Z,100905.13
2019-02-16T05:01:22.803Z,100906.23
2019-02-16T05:03:55.290Z,100904.87
2019-02-16T05:06:27.972Z,100907.05
2019-02-16T05:09:03.361Z,100902.27
2019-02-16T05:11:35.701Z,100896.31
2019-02-16T05:14:08.207Z,100900.30
2019-02-16T05:16:40.997Z,100902.72
2019-02-16T05:19:14.184Z,100902.03
2019-02-16T05:21:46.761Z,100903.68
2019-02-16T05:24:19.942Z,100902.67
2019-02-16T05:26:53.584Z,100894.84
2019-02-16T05:29:26.130Z,100899.34
2019-02-16T05:31:58.890Z,100893.47
2019-02-16T05:34:32.069Z,100890.18
2019-02-16T05:37:04.665Z,100888.05
2019-02-16T05:39:39.306Z,100893.31
2019-02-16T05:42:12.091Z,100890.69
2019-02-16T05:44:44.651Z,100889.08
2019-02-16T05:47:19.278Z,100878.42
2019-02-16T05:49:59.854Z,100888.70
2019-02-16T05:52:33.659Z,100889.13
2019-02-16T05:55:07.214Z,100892.48
2019-02-16T05:57:39.577Z,100900.64
2019-02-16T06:00:17.780Z,100899.05
2019-02-16T06:02:50.263Z,100896.03
2019-02-16T06:05:22.890Z,100900.95
2019-02-16T06:07:55.426Z,100897.41
2019-02-16T06:10:28.257Z,100897.57
2019-02-16T06:13:00.786Z,100894.95
2019-02-16T06:15:33.362Z,100887.25
2019-02-16T06:18:06.456Z,100887.30
2019-02-16T06:20:39.217Z,100890.84
2019-02-16T06:23:11.730Z,100894.02
2019-02-16T06:25:48.515Z,100900.89
2019-02-16T06:28:21.955Z,100905.17
2019-02-16T06:30:54.569Z,100906.72
2019-02-16T06:33:27.417Z,100912.28
2019-02-16T06:36:13.861Z,100904.91
2019-02-16T06:38:46.681Z,100914.91
2019-02-16T06:41:19.707Z,100917.41
2019-02-16T06:43:54.115Z,100920.91
2019-02-16T06:46:26.673Z,100918.91
2019-02-16T06:49:06.827Z,100921.36
2019-02-16T06:51:42.021Z,100920.13
2019-02-16T06:54:15.237Z,100923.03
2019-02-16T06:56:54.307Z,100928.40
2019-02-16T06:59:31.460Z,100931.58
2019-02-16T07:02:04.518Z,100931.25
2019-02-16T07:04:39.292Z,100929.73
2019-02-16T07:07:11.833Z,100933.69
2019-02-16T07:09:44.539Z,100934.95
2019-02-16T07:12:18.671Z,100940.31
2019-02-16T07:14:51.703Z,100940.41
2019-02-16T07:17:48.815Z,100940.05
2019-02-16T07:20:33.248Z,100947.67
2019-02-16T07:23:06.581Z,100945.70
2019-02-16T07:25:39.465Z,100939.55
2019-02-16T07:28:12.991Z,100938.55
2019-02-16T07:30:46.221Z,100944.97
2019-02-16T07:33:20.084Z,100942.01
2019-02-16T07:35:52.524Z,100940.59
2019-02-16T07:38:25.998Z,100938.41
2019-02-16T07:41:00.254Z,100941.87
2019-02-16T07:43:40.827Z,100944.89
2019-02-16T07:46:24.235Z,100947.03
2019-02-16T07:49:06.584Z,100949.89
2019-02-16T07:51:45.373Z,100949.73
2019-02-16T07:54:29.392Z,100956.16
2019-02-16T07:57:21.739Z,100960.52
2019-02-16T08:00:15.314Z,100961.02
2019-02-16T08:03:01.686Z,100972.75
2019-02-16T08:05:59.175Z,100971.80
2019-02-16T08:08:55.724Z,100971.33
2019-02-16T08:11:50.009Z,100974.17
2019-02-16T08:14:31.530Z,100980.05
2019-02-16T08:17:23.619Z,100987.91
2019-02-16T08:20:05.144Z,100987.45
2019-02-16T08:22:46.394Z,100985.11
2019-02-16T08:25:30.780Z,100987.22
2019-02-16T08:28:14.271Z,100984.78
2019-02-16T08:30:53.854Z,100985.69
2019-02-16T08:33:34.072Z,100979.61
2019-02-16T08:36:18.593Z,100971.06
2019-02-16T08:39:13.478Z,100959.50
2019-02-16T08:42:04.555Z,100962.59
2019-02-16T08:44:59.131Z,100950.61
2019-02-16T08:47:46.905Z,100950.05
2019-02-16T08:50:29.602Z,100945.42
2019-02-16T08:53:09.117Z,100944.17
2019-02-16T08:55:48.296Z,100948.66
2019-02-16T08:58:44.500Z,100944.58
2019-02-16T09:01:23.795Z,100942.27
2019-02-16T09:04:18.121Z,100944.95
2019-02-16T09:07:21.505Z,100940.46
2019-02-16T09:10:14.886Z,100934.25
2019-02-16T09:13:19.616Z,100930.25
2019-02-16T09:16:13.798Z,100928.80
2019-02-16T09:19:05.723Z,100927.97
2019-02-16T09:21:48.647Z,100923.15
2019-02-16T09:24:45.506Z,100925.53
2019-02-16T09:27:39.923Z,100926.06
2019-02-16T09:31:06.114Z,100926.03
2019-02-16T09:34:14.371Z,100913.12
2019-02-16T09:36:53.343Z,100922.31
2019-02-16T09:39:44.981Z,100923.98
2019-02-16T09:42:29.079Z,100923.46
2019-02-16T09:45:26.090Z,100920.12
2019-02-16T09:48:18.570Z,100919.13
2019-02-16T09:51:01.203Z,100920.67
2019-02-16T09:53:56.356Z,100931.63
2019-02-16T09:56:48.901Z,100934.83
2019-02-16T09:59:38.687Z,100931.11
2019-02-16T10:02:24.067Z,100939.03
2019-02-16T10:05:08.326Z,100939.80
2019-02-16T10:07:52.361Z,100937.42
2019-02-16T10:10:31.461Z,100943.77
2019-02-16T10:13:17.798Z,100949.67
2019-02-16T10:16:12.493Z,100946.27
2019-02-16T10:19:02.062Z,100951.58
2019-02-16T10:21:54.507Z,100957.72
2019-02-16T10:24:43.751Z,100952.23
2019-02-16T10:27:21.975Z,100951.94
2019-02-16T10:30:14.838Z,100949.77
2019-02-16T10:33:02.418Z,100946.94
2019-02-16T10:35:43.044Z,100952.02
2019-02-16T10:38:41.928Z,100963.50
2019-02-16T10:41:30.716Z,100952.58
2019-02-16T10:44:13.475Z,100957.35
2019-02-16T10:46:59.588Z,100955.02
2019-02-16T10:49:55.689Z,100954.91
2019-02-16T10:52:47.775Z,100954.05
2019-02-16T10:55:41.467Z,100956.56
2019-02-16T10:58:55.203Z,100954.47
2019-02-16T11:02:02.234Z,100961.70
2019-02-16T11:05:01.419Z,100960.93
2019-02-16T11:07:41.699Z,100962.90
2019-02-16T11:10:22.528Z,100961.69
2019-02-16T11:13:05.700Z,100956.50
2019-02-16T11:15:46.130Z,100954.09
2019-02-16T11:18:41.282Z,100952.14
2019-02-16T11:21:25.578Z,100943.59
2019-02-16T11:24:07.163Z,100936.58
2019-02-16T11:26:56.746Z,100937.53
2019-02-16T11:29:45.873Z,100936.52
2019-02-16T11:32:39.138Z,100934.89
2019-02-16T11:35:24.989Z,100930.64
2019-02-16T11:38:03.515Z,100930.56
2019-02-16T11:40:43.156Z,100928.37
2019-02-16T11:43:24.270Z,100926.09
2019-02-16T11:46:17.694Z,100922.27
2019-02-16T11:49:13.754Z,100917.56
2019-02-16T11:52:10.911Z,100917.41
2019-02-16T11:54:53.975Z,100909.50
2019-02-16T11:57:40.440Z,100921.73
2019-02-16T12:00:26.856Z,100922.31
2019-02-16T12:03:09.289Z,100914.50
2019-02-16T12:05:48.844Z,100917.46
2019-02-16T12:08:35.332Z,100919.31
2019-02-16T12:11:23.334Z,100919.17
2019-02-16T12:14:11.448Z,100913.41
2019-02-16T12:16:56.365Z,100907.39
2019-02-16T12:19:55.142Z,100901.52
2019-02-16T12:22:49.368Z,100896.83
2019-02-16T12:25:33.453Z,100896.60
2019-02-16T12:28:12.241Z,100899.09
2019-02-16T12:30:57.707Z,100897.39
2019-02-16T12:33:36.507Z,100892.48
2019-02-16T12:36:33.350Z,100888.53
2019-02-16T12:39:24.017Z,100888.86
2019-02-16T12:42:05.542Z,100890.61
2019-02-16T12:44:51.070Z,100889.62
2019-02-16T12:47:39.900Z,100883.31
2019-02-16T12:50:20.344Z,100874.52
2019-02-16T12:53:05.792Z,100880.35
2019-02-16T12:55:47.309Z,100873.94
2019-02-16T12:58:48.638Z,100871.05
2019-02-16T13:01:44.300Z,100871.05
2019-02-16T13:04:44.536Z,100871.50
2019-02-16T13:10:52.365Z,100871.69
2019-02-16T13:13:33.039Z,100866.73
2019-02-16T13:16:29.748Z,100868.98
2019-02-16T13:19:33.995Z,100873.44
2019-02-16T13:22:14.017Z,100868.91
2019-02-16T13:25:07.087Z,100868.73
2019-02-16T13:28:00.684Z,100860.83
2019-02-16T13:30:44.802Z,100863.25
2019-02-16T13:33:38.809Z,100868.84
2019-02-16T13:36:28.676Z,100867.87
2019-02-16T13:39:16.195Z,100862.23
2019-02-16T13:42:11.294Z,100860.95
2019-02-16T13:44:56.708Z,100861.78
2019-02-16T13:47:45.324Z,100864.02
2019-02-16T13:50:25.159Z,100862.23
2019-02-16T13:53:03.839Z,100855.50
2019-02-16T13:55:46.232Z,100850.41
2019-02-16T13:58:33.116Z,100847.02
2019-02-16T14:01:21.075Z,100849.66
2019-02-16T14:04:19.239Z,100848.40
2019-02-16T14:07:17.684Z,100852.73
2019-02-16T14:10:07.394Z,100853.22
2019-02-16T14:12:52.333Z,100848.68
2019-02-16T14:15:45.729Z,100846.27
2019-02-16T14:18:22.294Z,100849.77
2019-02-16T14:20:55.808Z,100841.33
2019-02-16T14:23:29.766Z,100839.28
2019-02-16T14:26:04.341Z,100847.74
2019-02-16T14:28:37.045Z,100844.28
2019-02-16T14:31:11.148Z,100848.15
2019-02-16T14:33:44.483Z,100847.64
2019-02-16T14:36:18.158Z,100851.23
2019-02-16T14:39:01.459Z,100852.69
2019-02-16T14:41:35.453Z,100847.85
2019-02-16T14:44:09.150Z,100845.55
2019-02-16T14:46:43.399Z,100840.21
2019-02-16T14:49:17.615Z,100841.35
2019-02-16T14:51:52.584Z,100836.77
2019-02-16T14:54:30.237Z,100842.50
2019-02-16T14:57:04.261Z,100842.17
2019-02-16T14:59:37.367Z,100841.22
2019-02-16T15:02:12.032Z,100835.44
2019-02-16T15:04:45.253Z,100829.70
2019-02-16T15:07:19.388Z,100828.75
2019-02-16T15:09:55.544Z,100825.67
2019-02-16T15:12:28.346Z,100824.59
2019-02-16T15:15:10.107Z,100824.51
2019-02-16T15:17:46.591Z,100823.31
2019-02-16T15:20:23.317Z,100823.07
2019-02-16T15:22:58.632Z,100820.08
2019-02-16T15:25:34.044Z,100822.28
2019-02-16T15:28:07.704Z,100822.39
2019-02-16T15:30:41.755Z,100824.41
2019-02-16T15:33:14.802Z,100821.94
2019-02-16T15:35:47.356Z,100821.20
2019-02-16T15:38:20.072Z,100819.71
2019-02-16T15:40:53.719Z,100814.89
2019-02-16T15:43:27.192Z,100817.31
2019-02-16T15:46:08.249Z,100813.91
2019-02-16T15:48:41.245Z,100811.88
2019-02-16T15:51:15.263Z,100814.84
2019-02-16T15:53:50.398Z,100817.00
2019-02-16T15:56:23.778Z,100816.69
2019-02-16T15:58:59.657Z,100813.92
2019-02-16T16:01:37.284Z,100805.41
2019-02-16T16:04:12.370Z,100807.77
2019-02-16T16:06:46.599Z,100802.58
2019-02-16T16:09:34.587Z,100801.91
2019-02-16T16:12:20.655Z,100810.32
2019-02-16T16:15:03.542Z,100809.89
2019-02-16T16:17:47.426Z,100808.27
2019-02-16T16:20:25.717Z,100813.70
2019-02-16T16:23:10.794Z,100807.80
2019-02-16T16:25:52.396Z,100808.16
2019-02-16T16:28:35.488Z,100807.91
2019-02-16T16:31:13.484Z,100805.91
2019-02-16T16:33:51.715Z,100809.74
2019-02-16T16:36:51.806Z,100810.16
2019-02-16T16:39:42.475Z,100809.08
2019-02-16T16:42:41.963Z,100809.53
2019-02-16T16:45:24.238Z,100817.23
2019-02-16T16:48:03.159Z,100815.73
2019-02-16T16:50:55.961Z,100817.95
2019-02-16T16:53:46.902Z,100816.49
2019-02-16T16:56:28.883Z,100819.23
2019-02-16T16:59:07.862Z,100816.59
2019-02-16T17:01:54.392Z,100822.02
2019-02-16T17:04:36.239Z,100826.33
2019-02-16T17:07:14.748Z,100828.54
2019-02-16T17:09:58.448Z,100832.36
2019-02-16T17:12:38.071Z,100829.64
2019-02-16T17:15:31.038Z,100831.03
2019-02-16T17:18:19.669Z,100827.61
2019-02-16T17:21:09.252Z,100839.53
2019-02-16T17:23:59.355Z,100839.38
2019-02-16T17:26:45.595Z,100831.74
2019-02-16T17:29:24.126Z,100834.61
2019-02-16T17:32:19.164Z,100835.66
2019-02-16T17:34:58.882Z,100834.39
2019-02-16T17:37:46.539Z,100836.28
2019-02-16T17:40:27.610Z,100836.47
2019-02-16T17:43:07.272Z,100832.27
2019-02-16T17:45:56.770Z,100833.57
2019-02-16T17:48:38.972Z,100830.29
2019-02-16T17:51:34.670Z,100832.55
2019-02-16T17:54:28.770Z,100838.65
2019-02-16T17:57:22.343Z,100837.52
2019-02-16T18:00:05.635Z,100831.34
2019-02-16T18:02:50.301Z,100843.95
2019-02-16T18:05:47.457Z,100838.20
2019-02-16T18:08:44.739Z,100842.32
2019-02-16T18:11:46.471Z,100842.56
2019-02-16T18:14:45.057Z,100842.46
2019-02-16T18:17:27.582Z,100840.42
2019-02-16T18:20:12.745Z,100842.14
2019-02-16T18:23:00.475Z,100839.33
2019-02-16T18:25:41.878Z,100842.34
2019-02-16T18:28:21.115Z,100842.84
2019-02-16T18:31:00.543Z,100846.97
2019-02-16T18:33:52.567Z,100844.06
2019-02-16T18:36:42.151Z,100846.70
2019-02-16T18:39:34.634Z,100851.08
2019-02-16T18:42:31.754Z,100849.20
2019-02-16T18:45:29.127Z,100854.04
2019-02-16T18:48:21.878Z,100848.17
2019-02-16T18:51:01.915Z,100849.60
2019-02-16T18:53:47.307Z,100843.34
2019-02-16T18:56:39.824Z,100841.48
2019-02-16T18:59:30.440Z,100842.25
2019-02-16T19:02:15.372Z,100844.37
2019-02-16T19:05:03.691Z,100849.22
2019-02-16T19:07:49.119Z,100849.22
2019-02-16T19:10:46.301Z,100850.63
2019-02-16T19:13:39.127Z,100851.00
2019-02-16T19:16:39.355Z,100851.02
2019-02-16T19:20:05.115Z,100852.83
2019-02-16T19:23:36.423Z,100852.72
2019-02-16T19:26:55.355Z,100856.94
2019-02-16T19:30:09.784Z,100855.39
2019-02-16T19:33:19.705Z,100859.30
2019-02-16T19:36:22.381Z,100856.38
2019-02-16T19:39:29.232Z,100855.22
2019-02-16T19:43:04.723Z,100853.78
2019-02-16T19:45:54.542Z,100848.41
2019-02-16T19:48:49.441Z,100851.64
2019-02-16T19:51:29.545Z,100844.02
2019-02-16T19:54:24.927Z,100845.94
2019-02-16T19:57:06.218Z,100841.81
2019-02-16T20:00:02.000Z,100841.66
2019-02-16T20:03:18.071Z,100837.71
2019-02-16T20:06:06.844Z,100835.99
2019-02-16T20:09:03.415Z,100833.83
2019-02-16T20:11:58.452Z,100844.05
2019-02-16T20:14:43.715Z,100843.05
2019-02-16T20:17:26.938Z,100842.88
2019-02-16T20:20:20.144Z,100843.30
2019-02-16T20:23:14.637Z,100842.39
2019-02-16T20:26:19.584Z,100841.41
2019-02-16T20:29:01.570Z,100846.03
2019-02-16T20:31:44.426Z,100843.69
2019-02-16T20:34:39.494Z,100846.33
2019-02-16T20:37:39.266Z,100847.67
2019-02-16T20:40:18.862Z,100846.52
2019-02-16T20:42:57.434Z,100846.02
2019-02-16T20:45:39.493Z,100851.61
2019-02-16T20:48:25.510Z,100852.30
2019-02-16T20:51:04.754Z,100847.56
2019-02-16T20:53:45.504Z,100846.81
2019-02-16T20:56:27.152Z,100847.37
2019-02-16T20:59:25.530Z,100845.35
2019-02-16T21:02:26.571Z,100844.64
2019-02-16T21:05:04.719Z,100836.36
2019-02-16T21:07:47.296Z,100836.91
2019-02-16T21:10:32.439Z,100836.02
2019-02-16T21:13:14.823Z,100834.23
2019-02-16T21:16:01.827Z,100828.16
2019-02-16T21:18:45.847Z,100831.13
2019-02-16T21:21:34.707Z,100836.06
2019-02-16T21:24:32.159Z,100837.70
2019-02-16T21:27:10.506Z,100834.58
2019-02-16T21:30:05.378Z,100832.28
2019-02-16T21:32:54.534Z,100841.75
2019-02-16T21:35:53.227Z,100838.98
2019-02-16T21:38:47.442Z,100839.23
2019-02-16T21:41:28.187Z,100837.80
2019-02-16T21:44:20.368Z,100839.16
2019-02-16T21:47:21.241Z,100835.35
2019-02-16T21:50:02.708Z,100833.27
2019-02-16T21:53:09.832Z,100835.33
2019-02-16T21:55:58.809Z,100831.33
2019-02-16T21:58:38.336Z,100829.50
2019-02-16T22:01:20.747Z,100827.05
2019-02-16T22:04:19.392Z,100831.23
2019-02-16T22:07:15.458Z,100829.14
2019-02-16T22:10:15.394Z,100838.20
2019-02-16T22:13:02.517Z,100826.95
2019-02-16T22:15:37.058Z,100826.09
2019-02-16T22:18:14.508Z,100830.19
2019-02-16T22:20:49.519Z,100828.06
2019-02-16T22:23:22.148Z,100825.03
2019-02-16T22:25:57.210Z,100818.57
2019-02-16T22:28:32.500Z,100821.95
2019-02-16T22:31:09.450Z,100826.65
2019-02-16T22:34:00.118Z,100820.09
2019-02-16T22:36:33.812Z,100829.03
2019-02-16T22:39:17.281Z,100825.58
2019-02-16T22:41:55.603Z,100829.14
2019-02-16T22:44:31.510Z,100827.53
2019-02-16T22:47:06.510Z,100825.58
2019-02-16T22:49:39.769Z,100831.77
2019-02-16T22:52:14.923Z,100835.33
2019-02-16T22:54:47.813Z,100838.47
2019-02-16T22:57:21.206Z,100845.39
2019-02-16T22:59:53.964Z,100845.18
2019-02-16T23:02:29.131Z,100847.29
2019-02-16T23:05:01.721Z,100844.65
2019-02-16T23:07:34.372Z,100848.55
2019-02-16T23:10:10.511Z,100843.89
2019-02-16T23:12:43.631Z,100843.32
2019-02-16T23:15:21.620Z,100839.77
2019-02-16T23:17:54.302Z,100844.53
2019-02-16T23:20:28.495Z,100837.23
2019-02-16T23:23:01.020Z,100839.81
2019-02-16T23:25:34.704Z,100839.67
2019-02-16T23:28:08.703Z,100839.28
2019-02-16T23:30:41.327Z,100839.59
2019-02-16T23:33:14.468Z,100836.23
2019-02-16T23:35:48.920Z,100837.14
2019-02-16T23:38:22.294Z,100834.80
2019-02-16T23:40:56.050Z,100834.02
2019-02-16T23:43:30.549Z,100829.73
2019-02-16T23:46:03.808Z,100829.99
2019-02-16T23:48:40.839Z,100829.42
2019-02-16T23:51:14.705Z,100823.04
2019-02-16T23:53:47.359Z,100815.17
2019-02-16T23:56:20.661Z,100815.47
2019-02-16T23:58:56.504Z,100805.12
